Time;durP1;ratioP1;P1;durP2;ratioP2;P2;SDS_P1;SDS_P2;PMS_P1;PMS_P2;Temp;Humidity;BMP_temperature;BMP_pressure;BME280_temperature;BME280_humidity;BME280_pressure;Samples;Min_cycle;Max_cycle;Signal;HPM_P1;HPM_P2
2022/06/14 00:00:56;;;;;;;7.72;4.32;;;8.30;99.90;;;;;;4907028;29;20039;-78
2022/06/14 00:03:26;;;;;;;9.25;4.10;;;8.30;99.90;;;;;;4952490;28;20046;-78
2022/06/14 00:05:52;;;;;;;7.75;4.80;;;8.30;99.90;;;;;;4931510;29;20050;-78
2022/06/14 00:08:25;;;;;;;7.35;4.32;;;8.20;99.90;;;;;;4939265;28;20042;-78
2022/06/14 00:10:51;;;;;;;6.95;4.70;;;8.20;99.90;;;;;;4953323;28;20042;-78
2022/06/14 00:13:18;;;;;;;6.43;4.47;;;8.30;99.90;;;;;;4949894;28;20054;-78
2022/06/14 00:15:45;;;;;;;6.78;4.20;;;8.20;99.90;;;;;;4927196;29;20046;-78
2022/06/14 00:18:13;;;;;;;6.80;3.92;;;8.10;99.90;;;;;;4934793;29;20053;-78
2022/06/14 00:20:40;;;;;;;6.78;4.13;;;8.10;99.90;;;;;;4931187;29;20103;-78
2022/06/14 00:23:07;;;;;;;6.35;4.20;;;8.10;99.90;;;;;;4941743;28;20125;-78
2022/06/14 00:25:39;;;;;;;6.70;4.13;;;8.10;99.90;;;;;;4942326;29;20098;-78
2022/06/14 00:28:07;;;;;;;5.60;4.22;;;8.00;99.90;;;;;;4933595;29;20062;-78
2022/06/14 00:30:33;;;;;;;7.63;4.13;;;8.00;99.90;;;;;;4921645;29;20078;-79
2022/06/14 00:33:03;;;;;;;5.43;3.80;;;7.90;99.90;;;;;;4930616;28;20046;-79
2022/06/14 00:35:28;;;;;;;4.53;3.60;;;8.00;99.90;;;;;;4935303;28;20041;-79
2022/06/14 00:37:55;;;;;;;6.20;4.15;;;7.90;99.90;;;;;;4923511;28;20047;-79
2022/06/14 00:40:25;;;;;;;5.60;4.25;;;7.90;99.90;;;;;;4912456;29;20049;-78
2022/06/14 00:42:51;;;;;;;5.53;4.20;;;7.90;99.90;;;;;;4930233;28;20047;-79
2022/06/14 00:45:16;;;;;;;6.03;4.43;;;7.90;99.90;;;;;;4928616;29;20039;-79
2022/06/14 00:47:44;;;;;;;7.72;4.45;;;8.00;99.90;;;;;;4949266;28;20517;-79
2022/06/14 00:50:17;;;;;;;7.20;4.75;;;7.80;99.90;;;;;;4937546;29;20051;-79
2022/06/14 00:52:49;;;;;;;6.68;4.30;;;7.80;99.90;;;;;;4927406;28;20031;-78
2022/06/14 00:55:25;;;;;;;5.57;4.13;;;7.80;99.90;;;;;;4940458;28;20045;-79
2022/06/14 00:57:59;;;;;;;6.18;4.35;;;7.80;99.90;;;;;;4937037;28;20509;-79
2022/06/14 01:00:34;;;;;;;6.90;4.50;;;7.80;99.90;;;;;;4953960;28;20043;-78
2022/06/14 01:03:05;;;;;;;7.75;4.63;;;7.80;99.90;;;;;;4912916;28;20070;-79
2022/06/14 01:06:06;;;;;;;6.60;4.25;;;7.80;99.90;;;;;;4939142;29;20039;-78
2022/06/14 01:09:00;;;;;;;7.72;4.25;;;7.80;99.90;;;;;;4924380;29;20111;-79
2022/06/14 01:11:42;;;;;;;5.18;3.90;;;7.80;99.90;;;;;;4919074;29;20115;-79
2022/06/14 01:14:12;;;;;;;5.82;4.25;;;7.70;99.90;;;;;;4936320;28;20039;-79
2022/06/14 01:16:38;;;;;;;7.95;4.25;;;7.70;99.90;;;;;;4944394;28;20043;-79
2022/06/14 01:19:17;;;;;;;6.35;4.10;;;7.70;99.90;;;;;;4925573;29;20102;-79
2022/06/14 01:21:50;;;;;;;5.35;4.00;;;7.60;99.90;;;;;;4921821;29;20134;-79
2022/06/14 01:24:16;;;;;;;6.90;4.75;;;7.70;99.90;;;;;;4926573;29;20066;-78
2022/06/14 01:26:42;;;;;;;6.30;4.03;;;7.70;99.90;;;;;;4928444;29;20126;-79
2022/06/14 01:29:08;;;;;;;8.23;4.82;;;7.60;99.90;;;;;;4927213;29;20397;-78
2022/06/14 01:31:37;;;;;;;7.00;4.30;;;7.50;99.90;;;;;;4934430;28;20122;-78
2022/06/14 01:34:07;;;;;;;5.90;4.32;;;7.60;99.90;;;;;;4942893;28;20070;-79
2022/06/14 01:36:36;;;;;;;6.63;4.53;;;7.60;99.90;;;;;;4952576;28;20511;-79
2022/06/14 01:39:07;;;;;;;8.30;5.13;;;7.60;99.90;;;;;;4928655;29;20035;-79
2022/06/14 01:41:53;;;;;;;6.35;4.53;;;7.60;99.90;;;;;;4926640;29;20537;-79
2022/06/14 01:44:44;;;;;;;6.90;4.72;;;7.50;99.90;;;;;;4927488;28;20050;-79
2022/06/14 01:47:34;;;;;;;7.10;3.42;;;7.50;99.90;;;;;;4935026;29;20035;-79
2022/06/14 01:53:29;;;;;;;7.68;4.28;;;7.50;99.90;;;;;;4947267;28;20526;-79
2022/06/14 01:56:09;;;;;;;7.28;4.15;;;7.50;99.90;;;;;;4936600;29;20509;-79
2022/06/14 01:58:35;;;;;;;8.68;4.22;;;7.40;99.90;;;;;;4933503;29;20413;-79
2022/06/14 02:01:18;;;;;;;6.22;4.20;;;7.40;99.90;;;;;;4927016;28;20045;-79
2022/06/14 02:04:39;;;;;;;4.90;3.75;;;7.40;99.90;;;;;;4930410;29;20126;-78
2022/06/14 02:07:17;;;;;;;5.30;4.07;;;7.30;99.90;;;;;;4843068;29;20485;-78
2022/06/14 02:10:01;;;;;;;5.18;3.83;;;7.30;99.90;;;;;;4838246;29;20171;-78
2022/06/14 02:12:45;;;;;;;6.40;4.10;;;7.30;99.90;;;;;;4913285;28;20043;-78
2022/06/14 02:15:17;;;;;;;7.65;4.20;;;7.30;99.90;;;;;;4935979;29;20043;-79
2022/06/14 02:18:05;;;;;;;5.20;3.63;;;7.30;99.90;;;;;;4942936;28;20589;-79
2022/06/14 02:20:37;;;;;;;5.95;3.80;;;7.30;99.90;;;;;;4936421;29;20078;-78
2022/06/14 02:23:06;;;;;;;5.38;3.97;;;7.30;99.90;;;;;;4936415;28;20042;-79
2022/06/14 02:25:47;;;;;;;6.82;3.90;;;7.30;99.90;;;;;;4935439;29;20043;-79
2022/06/14 02:28:29;;;;;;;4.60;3.60;;;7.30;99.90;;;;;;4927096;29;20463;-78
2022/06/14 02:30:59;;;;;;;8.43;4.13;;;7.30;99.90;;;;;;4927257;29;20070;-79
2022/06/14 02:33:52;;;;;;;6.63;4.15;;;7.20;99.90;;;;;;4950828;28;20050;-78
2022/06/14 02:36:27;;;;;;;7.50;4.20;;;7.20;99.90;;;;;;4935686;29;20035;-79
2022/06/14 02:39:02;;;;;;;9.45;4.43;;;7.20;99.90;;;;;;4942122;29;20044;-79
2022/06/14 02:41:42;;;;;;;6.63;4.40;;;7.20;99.90;;;;;;4941410;29;20053;-79
2022/06/14 02:44:22;;;;;;;5.82;4.18;;;7.20;99.90;;;;;;4936455;28;21382;-79
2022/06/14 02:46:55;;;;;;;6.72;4.18;;;7.10;99.90;;;;;;4943198;28;20055;-79
2022/06/14 02:49:43;;;;;;;8.25;3.90;;;7.20;99.90;;;;;;4926552;29;20585;-79
2022/06/14 02:52:35;;;;;;;6.97;4.88;;;7.20;99.90;;;;;;4926684;28;20043;-79
2022/06/14 02:55:27;;;;;;;7.50;4.40;;;7.20;99.90;;;;;;4942473;28;20045;-79
2022/06/14 02:58:11;;;;;;;8.10;4.50;;;7.20;99.90;;;;;;4939654;28;20420;-79
2022/06/14 03:01:04;;;;;;;5.85;3.92;;;7.10;99.90;;;;;;4922778;29;20035;-79
2022/06/14 03:03:38;;;;;;;7.32;4.40;;;7.20;99.90;;;;;;4929975;28;20045;-79
2022/06/14 03:06:32;;;;;;;7.10;3.83;;;7.20;99.90;;;;;;4942289;29;20083;-79
2022/06/14 03:09:03;;;;;;;5.95;4.30;;;7.20;99.90;;;;;;4936528;23;20050;-83
2022/06/14 03:11:56;;;;;;;6.55;4.13;;;7.20;99.90;;;;;;4921863;29;20162;-83
2022/06/14 03:14:43;;;;;;;6.65;3.90;;;7.20;99.90;;;;;;4925008;28;20046;-83
2022/06/14 03:17:32;;;;;;;6.70;3.90;;;7.20;99.90;;;;;;4925882;28;20060;-83
2022/06/14 03:20:46;;;;;;;6.90;4.38;;;7.10;99.90;;;;;;4921198;29;20039;-83
2022/06/14 03:23:14;;;;;;;6.32;4.00;;;7.20;99.90;;;;;;4877182;29;20051;-83
2022/06/14 03:25:49;;;;;;;7.05;4.15;;;7.20;99.90;;;;;;4925482;29;20051;-83
2022/06/14 03:28:20;;;;;;;6.53;4.13;;;7.20;99.90;;;;;;4902183;29;20044;-84
2022/06/14 03:31:10;;;;;;;6.95;4.68;;;7.20;99.90;;;;;;4927229;29;20048;-83
2022/06/14 03:34:07;;;;;;;5.57;3.78;;;7.20;99.90;;;;;;4941271;29;20394;-83
2022/06/14 03:36:33;;;;;;;7.75;4.30;;;7.20;99.90;;;;;;4945081;29;20047;-83
2022/06/14 03:39:15;;;;;;;5.90;3.70;;;7.30;99.90;;;;;;4913803;29;20526;-83
2022/06/14 03:41:46;;;;;;;6.32;4.13;;;7.30;99.90;;;;;;4925505;29;20047;-83
2022/06/14 03:44:14;;;;;;;5.63;3.85;;;7.30;99.90;;;;;;4926776;29;20075;-83
2022/06/14 03:46:45;;;;;;;7.05;4.07;;;7.30;99.90;;;;;;4932593;28;20054;-83
2022/06/14 03:49:18;;;;;;;6.88;4.03;;;7.30;99.90;;;;;;4921200;29;20031;-84
2022/06/14 03:52:02;;;;;;;5.13;3.60;;;7.30;99.90;;;;;;4924920;29;20040;-83
2022/06/14 03:55:01;;;;;;;8.88;4.15;;;7.40;99.90;;;;;;4920840;29;20040;-83
2022/06/14 03:57:36;;;;;;;7.18;4.28;;;7.40;99.90;;;;;;4918539;29;20036;-83
2022/06/14 04:00:13;;;;;;;7.35;4.20;;;7.50;99.90;;;;;;4935819;29;20076;-84
2022/06/14 04:02:56;;;;;;;8.45;4.72;;;7.60;99.90;;;;;;4926951;29;20047;-83
2022/06/14 04:05:41;;;;;;;6.78;4.60;;;7.60;99.90;;;;;;4919785;29;20387;-83
2022/06/14 04:08:24;;;;;;;9.43;5.00;;;7.70;99.90;;;;;;4917080;29;20043;-85
2022/06/14 04:11:19;;;;;;;;;;;7.70;99.90;;;;;;4925678;29;20040;-84
2022/06/14 04:13:52;;;;;;;7.00;4.43;;;7.80;99.90;;;;;;4937865;29;19965;-83
2022/06/14 04:16:39;;;;;;;8.00;4.53;;;7.90;99.90;;;;;;4938845;29;20046;-83
2022/06/14 04:19:42;;;;;;;10.38;5.47;;;7.90;99.90;;;;;;4937282;29;20039;-84
2022/06/14 04:22:27;;;;;;;7.85;5.57;;;8.00;99.90;;;;;;4948079;29;20055;-84
2022/06/14 04:24:58;;;;;;;7.82;4.47;;;8.10;99.90;;;;;;4928532;29;20043;-84
2022/06/14 04:27:52;;;;;;;7.00;4.35;;;8.30;99.90;;;;;;4933631;28;20489;-84
2022/06/14 04:30:27;;;;;;;9.20;4.65;;;8.50;99.90;;;;;;4925626;29;20057;-84
2022/06/14 04:33:24;;;;;;;8.93;4.95;;;8.80;99.90;;;;;;4915545;29;20040;-84
2022/06/14 04:35:54;;;;;;;7.95;4.68;;;8.90;99.90;;;;;;4920966;29;20039;-84
2022/06/14 04:38:28;;;;;;;6.75;4.80;;;9.20;99.90;;;;;;4916922;29;20530;-84
2022/06/14 04:41:18;;;;;;;8.05;4.68;;;9.40;99.90;;;;;;4939547;29;20039;-84
2022/06/14 04:44:01;;;;;;;8.85;4.68;;;9.60;99.90;;;;;;4931592;29;20118;-84
2022/06/14 04:46:42;;;;;;;5.97;4.60;;;9.90;99.90;;;;;;4899045;29;20044;-84
2022/06/14 04:49:35;;;;;;;6.97;4.22;;;10.20;99.90;;;;;;4898681;29;20036;-85
2022/06/14 04:52:17;;;;;;;8.73;3.80;;;10.40;99.90;;;;;;4904629;29;20040;-84
2022/06/14 04:54:57;;;;;;;7.07;3.50;;;10.60;99.90;;;;;;4944008;29;20130;-84
2022/06/14 04:57:33;;;;;;;11.02;3.70;;;10.80;99.90;;;;;;4936735;28;20130;-84
2022/06/14 05:00:10;;;;;;;7.28;4.25;;;10.90;99.90;;;;;;4930425;29;20078;-84
2022/06/14 05:02:42;;;;;;;6.38;3.75;;;11.10;99.90;;;;;;4917072;29;20122;-83
2022/06/14 05:05:21;;;;;;;7.57;3.90;;;11.20;99.90;;;;;;4942309;29;20040;-83
2022/06/14 05:08:09;;;;;;;8.73;3.45;;;11.40;99.90;;;;;;4952575;28;20059;-84
2022/06/14 05:10:54;;;;;;;6.47;3.45;;;11.50;99.90;;;;;;4925479;29;20051;-82
2022/06/14 05:13:32;;;;;;;6.38;3.40;;;11.70;99.90;;;;;;4911558;29;20499;-84
2022/06/14 05:16:32;;;;;;;5.60;3.45;;;11.80;99.90;;;;;;4922413;29;20508;-82
2022/06/14 05:19:00;;;;;;;10.20;3.67;;;11.90;99.90;;;;;;4927679;29;21363;-86
2022/06/14 05:21:36;;;;;;;5.18;3.15;;;12.10;99.90;;;;;;4916740;29;20047;-86
2022/06/14 05:27:19;;;;;;;5.55;3.45;;;12.40;99.90;;;;;;4933425;28;20058;-85
2022/06/14 05:30:04;;;;;;;7.55;3.25;;;12.60;99.90;;;;;;4921853;29;20478;-86
2022/06/14 05:32:44;;;;;;;7.57;2.83;;;12.70;99.90;;;;;;4938436;29;20058;-85
2022/06/14 05:35:09;;;;;;;5.43;3.08;;;12.90;99.90;;;;;;4917875;29;20478;-85
2022/06/14 05:37:56;;;;;;;7.22;3.50;;;13.10;99.90;;;;;;4917520;29;20044;-86
2022/06/14 05:40:41;;;;;;;4.00;2.80;;;13.30;99.90;;;;;;4924396;29;20072;-85
2022/06/14 05:43:21;;;;;;;6.55;3.10;;;13.60;99.90;;;;;;4951889;29;20401;-85
2022/06/14 05:45:55;;;;;;;5.75;2.88;;;13.80;99.90;;;;;;4943997;29;20047;-85
2022/06/14 05:48:53;;;;;;;7.10;3.20;;;14.00;99.90;;;;;;4922415;29;20126;-85
2022/06/14 05:51:29;;;;;;;4.63;2.72;;;14.20;99.90;;;;;;4926844;29;20050;-85
2022/06/14 05:54:07;;;;;;;5.55;2.92;;;14.40;99.90;;;;;;4928522;29;20095;-85
2022/06/14 05:56:54;;;;;;;5.57;2.60;;;14.40;99.90;;;;;;4936444;29;20039;-85
2022/06/14 05:59:51;;;;;;;6.10;3.03;;;14.50;99.90;;;;;;4935895;29;20043;-85
2022/06/14 06:02:35;;;;;;;6.13;3.00;;;14.50;99.90;;;;;;4913332;29;20090;-85
2022/06/14 06:05:28;;;;;;;7.93;2.72;;;14.40;99.90;;;;;;4934461;29;20517;-85
2022/06/14 06:08:01;;;;;;;5.97;2.58;;;14.20;99.90;;;;;;4951773;28;20122;-84
2022/06/14 06:10:31;;;;;;;7.45;2.80;;;14.10;99.90;;;;;;4930927;29;20039;-85
2022/06/14 06:13:10;;;;;;;5.10;2.78;;;14.00;99.90;;;;;;4928998;29;20051;-84
2022/06/14 06:15:38;;;;;;;4.78;2.33;;;13.80;99.90;;;;;;4942365;29;20649;-85
2022/06/14 06:18:20;;;;;;;6.30;3.38;;;13.70;99.90;;;;;;4924821;29;20126;-85
2022/06/14 06:21:19;;;;;;;8.10;3.45;;;13.60;99.90;;;;;;4924433;29;20153;-84
2022/06/14 06:23:53;;;;;;;6.60;2.95;;;13.50;99.90;;;;;;4935982;29;20039;-83
2022/06/14 06:26:21;;;;;;;7.18;3.28;;;13.50;99.90;;;;;;4918899;29;20387;-86
2022/06/14 06:28:56;;;;;;;6.07;3.22;;;13.40;99.90;;;;;;4949657;28;20445;-85
2022/06/14 06:31:31;;;;;;;5.65;3.25;;;13.40;99.90;;;;;;4942603;29;20402;-86
2022/06/14 06:34:01;;;;;;;6.35;3.03;;;13.40;99.90;;;;;;4927174;29;20050;-85
2022/06/14 06:36:38;;;;;;;5.93;3.35;;;13.40;99.90;;;;;;4929809;29;20043;-86
2022/06/14 06:39:19;;;;;;;8.32;3.03;;;13.40;99.90;;;;;;4937250;29;20050;-86
2022/06/14 06:41:50;;;;;;;6.60;3.10;;;13.40;99.90;;;;;;4942661;29;20074;-86
2022/06/14 06:44:36;;;;;;;8.20;3.35;;;13.40;99.90;;;;;;4901043;29;20426;-85
2022/06/14 06:47:11;;;;;;;7.25;3.20;;;13.40;99.90;;;;;;4908524;29;20059;-86
2022/06/14 06:49:43;;;;;;;8.45;3.70;;;13.40;99.90;;;;;;4924320;29;20044;-86
2022/06/14 06:52:11;;;;;;;6.22;3.30;;;13.50;99.90;;;;;;4927806;29;20040;-86
2022/06/14 06:54:49;;;;;;;8.07;3.25;;;13.50;99.90;;;;;;4919376;29;20028;-86
2022/06/14 06:57:20;;;;;;;6.93;3.17;;;13.50;99.90;;;;;;4917074;28;20464;-85
2022/06/14 06:59:49;;;;;;;4.57;2.80;;;13.60;99.90;;;;;;4946696;29;20043;-85
2022/06/14 07:02:41;;;;;;;7.95;2.83;;;13.70;99.90;;;;;;4938821;29;20074;-85
2022/06/14 07:05:14;;;;;;;6.07;3.08;;;13.70;99.90;;;;;;4939048;29;20051;-86
2022/06/14 07:08:01;;;;;;;6.75;3.33;;;13.70;99.90;;;;;;4938573;29;20090;-86
2022/06/14 07:10:29;;;;;;;6.13;3.05;;;13.90;99.90;;;;;;4926706;29;20075;-85
2022/06/14 07:13:04;;;;;;;6.10;2.83;;;13.80;99.90;;;;;;4928182;29;20050;-85
2022/06/14 07:15:39;;;;;;;5.88;3.92;;;13.90;99.90;;;;;;4938601;29;20069;-86
2022/06/14 07:18:25;;;;;;;5.82;2.97;;;14.10;99.90;;;;;;4938228;29;20567;-85
2022/06/14 07:21:00;;;;;;;5.72;3.22;;;14.30;99.90;;;;;;4954746;29;20512;-86
2022/06/14 07:23:57;;;;;;;7.00;3.03;;;14.50;99.90;;;;;;4928942;29;20035;-86
2022/06/14 07:26:45;;;;;;;6.30;3.22;;;14.60;99.90;;;;;;4925363;29;20045;-86
2022/06/14 07:29:30;;;;;;;4.88;2.90;;;14.80;99.90;;;;;;4926812;29;20098;-86
2022/06/14 07:32:13;;;;;;;7.45;3.15;;;14.90;99.90;;;;;;4944109;29;20035;-86
2022/06/14 07:34:40;;;;;;;4.97;2.95;;;15.00;99.90;;;;;;4938476;29;20050;-85
2022/06/14 07:37:12;;;;;;;6.70;3.15;;;15.10;99.90;;;;;;4937970;28;20046;-85
2022/06/14 07:40:07;;;;;;;5.80;2.38;;;15.20;99.90;;;;;;4942609;29;20050;-85
2022/06/14 07:42:46;;;;;;;3.95;2.55;;;15.30;99.90;;;;;;4922835;29;20115;-85
2022/06/14 07:45:23;;;;;;;4.00;2.40;;;15.60;99.90;;;;;;4938015;29;20079;-85
2022/06/14 07:48:04;;;;;;;3.25;1.75;;;16.00;99.90;;;;;;4937778;29;20490;-86
2022/06/14 07:50:43;;;;;;;5.88;2.50;;;16.30;99.90;;;;;;4937842;29;20043;-85
2022/06/14 07:53:30;;;;;;;5.93;2.30;;;16.40;99.90;;;;;;4932353;29;20404;-85
2022/06/14 07:56:01;;;;;;;4.80;1.77;;;16.50;99.90;;;;;;4935790;29;20043;-85
2022/06/14 07:58:37;;;;;;;4.43;1.65;;;16.80;99.90;;;;;;4937478;29;20042;-86
2022/06/14 08:01:14;;;;;;;3.78;1.80;;;16.80;99.90;;;;;;4953624;29;20047;-86
2022/06/14 08:03:59;;;;;;;6.43;1.98;;;16.80;99.90;;;;;;4928809;29;20082;-86
2022/06/14 08:06:48;;;;;;;4.50;1.77;;;16.80;99.90;;;;;;4926219;29;20558;-86
2022/06/14 08:09:32;;;;;;;4.63;2.10;;;16.60;99.90;;;;;;4915252;29;20435;-86
2022/06/14 08:12:01;;;;;;;4.80;1.63;;;17.00;99.90;;;;;;4899728;29;20051;-86
2022/06/14 08:14:39;;;;;;;5.88;1.55;;;17.70;99.90;;;;;;4899646;29;20044;-86
2022/06/14 08:17:08;;;;;;;3.78;1.50;;;18.50;99.90;;;;;;4908729;28;20040;-86
2022/06/14 08:19:42;;;;;;;3.03;1.40;;;19.30;99.90;;;;;;4945400;29;20101;-85
2022/06/14 08:22:16;;;;;;;3.53;1.33;;;20.10;99.90;;;;;;4937605;29;20443;-85
2022/06/14 08:24:48;;;;;;;4.20;1.40;;;20.90;99.90;;;;;;4937263;29;20251;-86
2022/06/14 08:27:19;;;;;;;4.53;1.52;;;21.30;99.90;;;;;;4937265;28;20398;-86
2022/06/14 08:30:03;;;;;;;3.58;1.60;;;21.20;99.90;;;;;;4937046;29;20043;-86
2022/06/14 08:32:37;;;;;;;3.15;1.35;;;20.80;99.90;;;;;;4928161;29;20052;-86
2022/06/14 08:35:07;;;;;;;1.95;1.23;;;20.40;99.90;;;;;;4944801;28;20517;-86
2022/06/14 08:37:47;;;;;;;2.30;1.30;;;20.00;99.90;;;;;;4937201;29;20049;-86
2022/06/14 08:40:37;;;;;;;3.30;1.40;;;19.60;99.90;;;;;;4953038;29;20128;-86
2022/06/14 08:43:11;;;;;;;3.15;1.38;;;19.40;99.90;;;;;;4926936;29;20050;-86
2022/06/14 08:46:14;;;;;;;5.97;1.48;;;19.10;99.90;;;;;;4932360;29;20079;-86
2022/06/14 08:49:02;;;;;;;3.70;1.38;;;19.00;99.90;;;;;;4926583;29;20114;-85
2022/06/14 08:51:27;;;;;;;3.30;1.20;;;19.40;99.90;;;;;;4898492;29;20055;-85
2022/06/14 08:54:14;;;;;;;3.70;1.05;;;20.20;99.90;;;;;;4936905;29;20526;-86
2022/06/14 08:57:11;;;;;;;2.08;1.00;;;20.90;99.90;;;;;;4928333;29;20047;-87
2022/06/14 09:00:14;;;;;;;7.32;1.38;;;21.70;99.90;;;;;;4898861;29;20108;-86
2022/06/14 09:02:55;;;;;;;1.75;1.10;;;22.30;99.60;;;;;;4899109;29;20044;-86
2022/06/14 09:05:37;;;;;;;2.15;1.00;;;22.90;99.90;;;;;;4898876;29;20055;-86
2022/06/14 09:08:40;;;;;;;4.97;1.00;;;23.00;94.70;;;;;;4945515;23;20130;-78
2022/06/14 09:11:32;;;;;;;3.50;1.20;;;22.50;93.30;;;;;;4937541;28;20175;-79
2022/06/14 09:14:26;;;;;;;4.85;1.20;;;22.10;94.50;;;;;;4955466;28;20066;-78
2022/06/14 09:17:31;;;;;;;3.50;1.13;;;21.70;92.70;;;;;;4957047;28;20797;-79
2022/06/14 09:20:02;;;;;;;2.97;1.40;;;21.10;92.70;;;;;;4933364;29;20079;-79
2022/06/14 09:22:55;;;;;;;1.98;1.00;;;20.60;94.80;;;;;;4926170;29;20050;-79
2022/06/14 09:26:06;;;;;;;2.42;1.00;;;20.20;95.80;;;;;;4904908;29;20517;-78
2022/06/14 09:29:06;;;;;;;4.38;1.52;;;19.80;96.10;;;;;;4898987;29;20091;-78
2022/06/14 09:31:39;;;;;;;1.90;0.95;;;19.60;96.60;;;;;;4899886;29;20044;-78
2022/06/14 09:34:41;;;;;;;3.95;1.17;;;19.30;98.70;;;;;;4899881;29;20086;-78
2022/06/14 09:37:44;;;;;;;1.77;0.80;;;19.10;97.40;;;;;;4943545;29;20483;-78
2022/06/14 09:40:35;;;;;;;4.20;1.40;;;18.90;98.70;;;;;;4937310;29;20047;-78
2022/06/14 09:43:42;;;;;;;4.13;1.38;;;18.90;99.90;;;;;;4937405;29;20047;-78
2022/06/14 09:46:14;;;;;;;2.47;1.23;;;19.40;96.70;;;;;;4929478;29;20402;-78
2022/06/14 09:49:20;;;;;;;3.65;1.27;;;20.40;98.20;;;;;;4942310;29;20079;-79
2022/06/14 09:52:13;;;;;;;4.68;1.27;;;21.50;91.20;;;;;;4943128;29;20047;-79
2022/06/14 09:55:00;;;;;;;3.08;1.10;;;22.50;89.90;;;;;;4943648;29;20039;-79
2022/06/14 09:58:06;;;;;;;2.75;1.00;;;23.30;84.40;;;;;;4943353;28;20117;-79
2022/06/14 10:01:18;;;;;;;3.33;1.05;;;23.80;80.80;;;;;;4932594;29;20481;-79
2022/06/14 10:03:56;;;;;;;3.08;1.00;;;23.30;70.50;;;;;;4920735;29;20055;-79
2022/06/14 10:06:45;;;;;;;2.28;1.30;;;22.50;78.00;;;;;;4906249;29;20048;-79
2022/06/14 10:09:32;;;;;;;2.75;1.10;;;22.00;78.40;;;;;;4907261;29;20039;-78
2022/06/14 10:12:36;;;;;;;2.58;1.13;;;21.50;83.80;;;;;;4932446;29;20086;-78
2022/06/14 10:15:37;;;;;;;4.90;1.42;;;21.20;84.30;;;;;;4934319;29;20404;-77
2022/06/14 10:18:16;;;;;;;2.17;0.80;;;20.60;82.10;;;;;;4865411;29;20050;-79
2022/06/14 10:21:05;;;;;;;2.78;1.20;;;20.40;86.00;;;;;;4944008;29;20405;-78
2022/06/14 10:24:02;;;;;;;2.25;0.90;;;20.60;91.90;;;;;;4933802;29;20047;-78
2022/06/14 10:30:09;;;;;;;2.22;1.10;;;22.50;89.40;;;;;;4943751;29;20044;-78
2022/06/14 10:33:16;;;;;;;2.05;1.20;;;23.60;86.60;;;;;;4932745;29;20044;-79
2022/06/14 10:36:19;;;;;;;2.05;0.95;;;24.30;84.40;;;;;;4948512;29;20047;-79
2022/06/14 10:39:26;;;;;;;1.65;0.80;;;25.00;83.60;;;;;;4933440;29;20040;-79
2022/06/14 10:42:30;;;;;;;2.58;1.10;;;25.60;64.90;;;;;;4919178;29;20044;-79
2022/06/14 10:45:05;;;;;;;2.65;1.42;;;25.80;65.90;;;;;;4939260;29;20035;-78
2022/06/14 10:47:37;;;;;;;3.15;1.05;;;25.70;67.90;;;;;;4935130;28;20254;-78
2022/06/14 10:50:12;;;;;;;2.55;1.17;;;25.20;68.50;;;;;;4934854;29;20160;-78
2022/06/14 10:53:08;;;;;;;1.80;1.10;;;25.00;68.80;;;;;;4922036;29;20372;-78
2022/06/14 10:55:53;;;;;;;1.70;1.00;;;24.70;70.10;;;;;;4921913;29;20039;-78
2022/06/14 10:58:41;;;;;;;3.03;1.30;;;24.80;72.50;;;;;;4922243;29;20361;-78
2022/06/14 11:01:26;;;;;;;2.60;1.00;;;25.00;69.70;;;;;;4930759;29;20513;-78
2022/06/14 11:04:02;;;;;;;3.10;1.30;;;25.30;67.30;;;;;;4937786;29;20090;-78
2022/06/14 11:06:47;;;;;;;2.13;1.00;;;25.20;67.70;;;;;;4928169;29;20518;-80
2022/06/14 11:09:39;;;;;;;2.38;1.00;;;24.70;67.70;;;;;;4933427;29;20048;-79
2022/06/14 11:12:29;;;;;;;2.55;1.00;;;24.20;69.20;;;;;;4922650;29;20035;-78
2022/06/14 11:15:17;;;;;;;4.50;1.30;;;23.80;70.40;;;;;;4951987;29;20043;-78
2022/06/14 11:18:07;;;;;;;3.20;1.13;;;23.40;68.80;;;;;;4918279;29;20513;-77
2022/06/14 11:20:59;;;;;;;2.10;1.10;;;23.10;68.00;;;;;;4915791;29;20044;-78
2022/06/14 11:23:54;;;;;;;3.65;1.38;;;22.70;69.40;;;;;;4941037;29;20109;-78
2022/06/14 11:27:06;;;;;;;2.25;0.98;;;22.20;68.00;;;;;;4925389;29;20098;-78
2022/06/14 11:29:50;;;;;;;2.53;1.20;;;21.60;68.50;;;;;;4925393;29;20102;-78
2022/06/14 11:32:31;;;;;;;1.95;0.90;;;21.80;68.70;;;;;;4938633;29;20056;-78
2022/06/14 11:35:00;;;;;;;3.78;1.38;;;22.40;69.70;;;;;;4931036;29;20043;-78
2022/06/14 11:37:35;;;;;;;1.98;1.10;;;22.80;68.20;;;;;;4933329;29;20045;-77
2022/06/14 11:40:19;;;;;;;2.15;0.85;;;22.90;70.20;;;;;;4938262;29;20125;-77
2022/06/14 11:43:00;;;;;;;2.00;0.82;;;23.20;70.40;;;;;;4938408;29;20489;-77
2022/06/14 11:45:46;;;;;;;2.33;0.80;;;23.50;68.60;;;;;;4928228;29;20525;-77
2022/06/14 11:48:14;;;;;;;2.58;0.98;;;23.80;70.80;;;;;;4928910;29;20043;-77
2022/06/14 11:50:52;;;;;;;1.27;0.63;;;24.40;69.20;;;;;;4923347;29;20059;-78
2022/06/14 11:53:27;;;;;;;2.58;0.90;;;24.90;69.20;;;;;;4900040;29;20044;-78
2022/06/14 11:56:10;;;;;;;1.75;0.70;;;25.50;69.50;;;;;;4916651;29;20494;-78
2022/06/14 11:59:05;;;;;;;1.85;0.90;;;25.90;66.20;;;;;;4938166;29;20046;-79
2022/06/14 12:01:45;;;;;;;2.75;1.08;;;26.20;64.70;;;;;;4865404;29;20116;-79
2022/06/14 12:04:45;;;;;;;1.42;0.85;;;26.20;59.50;;;;;;4926390;29;20650;-79
2022/06/14 12:07:17;;;;;;;3.13;0.90;;;26.30;61.10;;;;;;4919564;29;20043;-78
2022/06/14 12:10:09;;;;;;;1.35;0.57;;;26.30;60.90;;;;;;4948499;28;20047;-78
2022/06/14 12:12:51;;;;;;;2.97;0.95;;;26.30;58.80;;;;;;4906391;29;20094;-78
2022/06/14 12:15:35;;;;;;;1.35;0.80;;;26.30;56.60;;;;;;4935407;29;20044;-78
2022/06/14 12:18:07;;;;;;;2.25;0.90;;;26.30;55.90;;;;;;4925173;29;20047;-79
2022/06/14 12:21:01;;;;;;;1.50;1.02;;;26.30;58.20;;;;;;4947547;29;20051;-79
2022/06/14 12:23:46;;;;;;;3.65;0.88;;;26.20;55.90;;;;;;4925030;29;20524;-77
2022/06/14 12:29:20;;;;;;;3.10;1.20;;;25.50;62.30;;;;;;4945623;29;20078;-77
2022/06/14 12:31:57;;;;;;;3.28;1.40;;;25.00;63.20;;;;;;4925902;29;20513;-78
2022/06/14 12:34:48;;;;;;;2.35;1.20;;;24.50;62.90;;;;;;4945982;29;20118;-78
2022/06/14 12:37:35;;;;;;;2.55;1.30;;;23.90;61.10;;;;;;4929423;29;20051;-78
2022/06/14 12:40:28;;;;;;;1.75;1.10;;;23.50;63.50;;;;;;4937047;29;20039;-78
2022/06/14 12:43:23;;;;;;;1.83;1.10;;;23.30;63.10;;;;;;4937116;29;20116;-78
2022/06/14 12:45:59;;;;;;;1.10;1.00;;;23.10;63.40;;;;;;4933379;29;20126;-78
2022/06/14 12:49:20;;;;;;;2.92;1.38;;;23.20;65.10;;;;;;4944084;29;20043;-78
2022/06/14 12:52:42;;;;;;;1.90;1.30;;;23.80;62.00;;;;;;4917396;29;20071;-78
2022/06/14 12:55:21;;;;;;;2.60;1.10;;;24.80;68.30;;;;;;4916264;29;20044;-78
2022/06/14 12:58:35;;;;;;;2.58;1.17;;;25.50;63.90;;;;;;4899916;29;20131;-78
2022/06/14 13:01:04;;;;;;;1.77;1.00;;;25.90;59.40;;;;;;4876353;29;20044;-77
2022/06/14 13:03:44;;;;;;;3.65;1.25;;;25.90;61.70;;;;;;4924959;29;20494;-78
2022/06/14 13:06:53;;;;;;;1.55;1.10;;;26.00;61.40;;;;;;4944593;29;20039;-78
2022/06/14 13:09:49;;;;;;;2.50;1.30;;;26.40;59.80;;;;;;4915291;29;20491;-78
2022/06/14 13:12:36;;;;;;;2.47;1.02;;;26.50;58.10;;;;;;4924115;29;20048;-78
2022/06/14 13:15:11;;;;;;;2.45;1.35;;;26.00;58.70;;;;;;4935265;29;20047;-78
2022/06/14 13:17:56;;;;;;;2.75;1.08;;;26.10;61.20;;;;;;4937092;28;20106;-78
2022/06/14 13:20:28;;;;;;;1.83;1.15;;;26.50;60.80;;;;;;4950416;28;20052;-77
2022/06/14 13:23:33;;;;;;;4.65;1.23;;;26.90;59.00;;;;;;4925571;29;20454;-78
2022/06/14 13:26:39;;;;;;;2.33;1.02;;;27.10;56.90;;;;;;4932593;29;20055;-78
2022/06/14 13:29:07;;;;;;;1.88;0.98;;;27.30;54.90;;;;;;4912651;29;20529;-78
2022/06/14 13:31:42;;;;;;;1.77;0.98;;;27.60;58.10;;;;;;4942202;29;20038;-78
2022/06/14 13:35:09;;;;;;;3.25;1.15;;;27.60;57.30;;;;;;4950450;29;20039;-78
2022/06/14 13:37:53;;;;;;;2.08;0.88;;;27.00;59.90;;;;;;4857201;29;20535;-78
2022/06/14 13:40:26;;;;;;;1.30;1.02;;;26.30;60.20;;;;;;4898700;29;20521;-78
2022/06/14 13:43:18;;;;;;;1.80;0.88;;;25.80;57.80;;;;;;4931705;29;20066;-78
2022/06/14 13:45:59;;;;;;;2.13;0.73;;;25.20;58.10;;;;;;4936504;29;20062;-77
2022/06/14 13:48:40;;;;;;;2.15;0.70;;;24.70;60.80;;;;;;4934134;29;20043;-77
2022/06/14 13:51:37;;;;;;;1.65;1.00;;;24.30;61.70;;;;;;4933354;29;20378;-80
2022/06/14 13:54:18;;;;;;;1.85;0.63;;;23.90;64.70;;;;;;4929836;29;20039;-78
2022/06/14 13:57:08;;;;;;;2.65;1.00;;;23.60;65.30;;;;;;4941982;29;20133;-78
2022/06/14 13:59:45;;;;;;;2.72;0.93;;;23.40;67.40;;;;;;4928222;29;20039;-78
2022/06/14 14:02:41;;;;;;;2.00;0.90;;;23.10;67.50;;;;;;4931789;29;20098;-77
2022/06/14 14:05:30;;;;;;;2.75;1.17;;;22.80;65.30;;;;;;4939530;29;20051;-77
2022/06/14 14:08:19;;;;;;;1.50;0.80;;;22.40;63.50;;;;;;4932165;29;20062;-77
2022/06/14 14:11:02;;;;;;;1.63;0.90;;;22.20;63.50;;;;;;4930643;29;20078;-77
2022/06/14 14:13:46;;;;;;;4.82;1.05;;;22.00;64.20;;;;;;4927847;29;20122;-76
2022/06/14 14:16:31;;;;;;;3.97;1.08;;;21.90;63.00;;;;;;4940271;29;20039;-77
2022/06/14 14:19:06;;;;;;;2.30;0.80;;;21.80;62.40;;;;;;4933662;29;20039;-77
2022/06/14 14:21:43;;;;;;;2.17;0.95;;;21.70;63.60;;;;;;4949567;29;20633;-77